Time;durP1;ratioP1;P1;durP2;ratioP2;P2;SDS_P1;SDS_P2;PMS_P1;PMS_P2;Temp;Humidity;BMP_temperature;BMP_pressure;BME280_temperature;BME280_humidity;BME280_pressure;Samples;Min_cycle;Max_cycle;Signal;HPM_P1;HPM_P2
2022/04/08 00:00:27;;;;;;;1.90;1.70;;;25.80;40.70;;;;;;4850787;29;20464;-61
2022/04/08 00:02:58;;;;;;;2.07;1.60;;;25.80;40.30;;;;;;4850664;29;20467;-61
2022/04/08 00:05:29;;;;;;;3.50;1.80;;;25.80;39.30;;;;;;4835356;29;20463;-59
2022/04/08 00:08:03;;;;;;;1.63;1.50;;;25.60;40.10;;;;;;4835674;29;20515;-60
2022/04/08 00:10:33;;;;;;;2.70;1.70;;;25.60;40.80;;;;;;4835014;29;20507;-59
2022/04/08 00:13:07;;;;;;;2.97;1.60;;;25.60;41.60;;;;;;4839183;29;20821;-60
2022/04/08 00:15:38;;;;;;;2.87;1.77;;;25.70;39.80;;;;;;4847232;29;20548;-61
2022/04/08 00:18:09;;;;;;;2.73;1.83;;;25.60;40.30;;;;;;4845314;29;20528;-60
2022/04/08 00:20:40;;;;;;;2.80;1.60;;;25.40;41.60;;;;;;4844603;29;20459;-62
2022/04/08 00:23:11;;;;;;;3.77;1.67;;;25.40;41.10;;;;;;4850831;29;20465;-60
2022/04/08 00:25:42;;;;;;;3.10;1.67;;;25.20;40.90;;;;;;4846617;29;20466;-60
2022/04/08 00:28:14;;;;;;;2.63;1.63;;;25.00;41.20;;;;;;4844039;29;20493;-61
2022/04/08 00:30:45;;;;;;;5.27;2.20;;;25.00;41.50;;;;;;4846216;29;20498;-61
2022/04/08 00:33:16;;;;;;;1.73;1.63;;;25.00;41.60;;;;;;4850824;29;20479;-61
2022/04/08 00:35:46;;;;;;;3.90;1.93;;;24.90;41.70;;;;;;4848584;29;20475;-61
2022/04/08 00:38:17;;;;;;;2.70;1.67;;;24.80;41.60;;;;;;4852313;29;20470;-61
2022/04/08 00:40:48;;;;;;;2.30;1.80;;;24.80;42.40;;;;;;4849826;29;20467;-61
2022/04/08 00:43:21;;;;;;;4.73;1.77;;;24.80;42.30;;;;;;4846683;29;20458;-60
2022/04/08 00:45:52;;;;;;;3.10;1.77;;;24.80;42.20;;;;;;4841105;29;20535;-63
2022/04/08 00:48:22;;;;;;;3.20;1.90;;;24.70;41.40;;;;;;4848920;29;20484;-61
2022/04/08 00:50:53;;;;;;;2.97;2.27;;;24.60;42.20;;;;;;4851059;29;20589;-61
2022/04/08 00:53:25;;;;;;;2.40;2.00;;;24.40;43.50;;;;;;4846914;29;20469;-65
2022/04/08 00:55:56;;;;;;;3.97;1.87;;;24.30;42.80;;;;;;4852039;29;20464;-65
2022/04/08 00:58:29;;;;;;;2.67;1.60;;;24.20;42.80;;;;;;4848488;29;20485;-66
2022/04/08 01:01:00;;;;;;;2.00;1.53;;;24.20;43.00;;;;;;4849984;29;20458;-66
2022/04/08 01:03:31;;;;;;;3.37;1.60;;;24.20;43.50;;;;;;4847799;29;20461;-65
2022/04/08 01:06:02;;;;;;;3.00;1.87;;;24.10;42.80;;;;;;4844836;29;20522;-66
2022/04/08 01:08:36;;;;;;;3.57;1.67;;;24.00;43.10;;;;;;4842274;29;20478;-67
2022/04/08 01:11:07;;;;;;;4.03;1.80;;;23.80;43.60;;;;;;4848116;29;20514;-66
2022/04/08 01:13:42;;;;;;;1.97;1.77;;;23.80;43.80;;;;;;4850121;29;20554;-66
2022/04/08 01:16:13;;;;;;;2.90;1.40;;;23.70;43.80;;;;;;4841784;29;20467;-64
2022/04/08 01:18:44;;;;;;;3.40;1.70;;;23.60;44.70;;;;;;4848363;29;20438;-62
2022/04/08 01:21:15;;;;;;;2.63;1.70;;;23.60;44.20;;;;;;4851385;29;20478;-60
2022/04/08 01:23:49;;;;;;;3.77;1.93;;;23.40;43.80;;;;;;4848996;29;20462;-66
2022/04/08 01:26:22;;;;;;;2.10;1.67;;;23.40;44.50;;;;;;4843344;29;20568;-63
2022/04/08 01:28:54;;;;;;;3.03;1.93;;;23.30;44.80;;;;;;4846337;29;20490;-62
2022/04/08 01:31:25;;;;;;;2.60;1.90;;;23.20;45.40;;;;;;4847446;29;20497;-61
2022/04/08 01:33:55;;;;;;;2.23;2.00;;;23.20;44.60;;;;;;4850190;29;20523;-62
2022/04/08 01:36:27;;;;;;;2.87;1.70;;;23.20;45.40;;;;;;4849390;29;20833;-61
2022/04/08 01:39:00;;;;;;;2.43;2.23;;;23.20;46.00;;;;;;4846272;29;20455;-61
2022/04/08 01:41:32;;;;;;;2.90;2.50;;;23.00;45.20;;;;;;4850695;29;20496;-60
2022/04/08 01:44:03;;;;;;;3.80;2.10;;;22.90;44.90;;;;;;4849702;29;20471;-60
2022/04/08 01:46:34;;;;;;;2.70;1.83;;;22.90;44.30;;;;;;4851859;29;20535;-61
2022/04/08 01:49:05;;;;;;;2.50;2.00;;;22.80;44.20;;;;;;4850989;29;20481;-62
2022/04/08 01:51:36;;;;;;;2.03;1.90;;;22.60;45.00;;;;;;4851877;29;20557;-60
2022/04/08 01:54:07;;;;;;;1.50;1.40;;;22.50;46.00;;;;;;4851250;29;20939;-59
2022/04/08 01:56:39;;;;;;;3.13;1.63;;;22.30;45.80;;;;;;4850861;29;20458;-60
2022/04/08 01:59:10;;;;;;;2.83;1.77;;;22.10;45.20;;;;;;4847488;29;20550;-60
2022/04/08 02:01:41;;;;;;;2.90;2.00;;;22.10;46.50;;;;;;4845610;29;20472;-59
2022/04/08 02:04:11;;;;;;;1.60;1.50;;;21.90;46.10;;;;;;4847477;29;20478;-62
2022/04/08 02:06:42;;;;;;;2.90;1.40;;;21.80;46.70;;;;;;4844280;29;20493;-61
2022/04/08 02:09:13;;;;;;;1.60;1.40;;;21.70;46.60;;;;;;4850199;29;20466;-62
2022/04/08 02:11:46;;;;;;;3.10;1.47;;;21.50;45.50;;;;;;4842245;29;20498;-62
2022/04/08 02:14:17;;;;;;;2.47;1.63;;;21.50;46.70;;;;;;4850624;29;20476;-60
2022/04/08 02:16:48;;;;;;;1.87;1.57;;;21.40;47.50;;;;;;4842106;29;20463;-63
2022/04/08 02:19:19;;;;;;;2.70;1.80;;;21.30;46.90;;;;;;4850846;29;20466;-63
2022/04/08 02:21:51;;;;;;;1.87;1.73;;;21.10;46.70;;;;;;4844799;29;20489;-62
2022/04/08 02:24:22;;;;;;;3.43;1.90;;;21.10;46.40;;;;;;4851785;29;20466;-61
2022/04/08 02:26:54;;;;;;;1.80;1.70;;;21.00;46.50;;;;;;4851456;29;20458;-62
2022/04/08 02:29:25;;;;;;;3.93;1.83;;;20.90;46.20;;;;;;4842165;29;20466;-64
2022/04/08 02:31:58;;;;;;;1.67;1.43;;;21.00;46.00;;;;;;4837610;29;20780;-65
2022/04/08 02:34:29;;;;;;;3.67;1.90;;;20.90;46.40;;;;;;4847141;29;20465;-61
2022/04/08 02:37:00;;;;;;;2.73;2.00;;;20.80;47.50;;;;;;4848808;29;20437;-61
2022/04/08 02:39:32;;;;;;;3.10;1.70;;;20.70;47.30;;;;;;4849755;29;20481;-61
2022/04/08 02:42:05;;;;;;;1.80;1.40;;;20.70;47.50;;;;;;4842537;29;20465;-59
2022/04/08 02:44:35;;;;;;;1.80;1.70;;;20.60;47.80;;;;;;4837455;29;20446;-60
2022/04/08 02:47:07;;;;;;;2.83;1.70;;;20.50;46.90;;;;;;4844861;29;20480;-60
2022/04/08 02:49:38;;;;;;;3.27;1.70;;;20.40;47.10;;;;;;4838790;29;20451;-60
2022/04/08 02:52:09;;;;;;;4.93;1.83;;;20.30;49.30;;;;;;4840329;29;20970;-60
2022/04/08 02:54:40;;;;;;;4.60;1.90;;;20.30;48.20;;;;;;4841291;29;20463;-60
2022/04/08 02:57:12;;;;;;;2.80;1.70;;;20.20;48.20;;;;;;4834380;29;20831;-60
2022/04/08 02:59:43;;;;;;;1.93;1.43;;;20.20;48.10;;;;;;4848093;29;20458;-61
2022/04/08 03:02:14;;;;;;;2.07;1.60;;;20.00;48.90;;;;;;4845819;29;20452;-60
2022/04/08 03:04:45;;;;;;;2.43;1.60;;;20.00;48.30;;;;;;4839023;29;20462;-59
2022/04/08 03:07:16;;;;;;;2.03;1.50;;;19.90;49.90;;;;;;4850818;29;20498;-59
2022/04/08 03:09:46;;;;;;;3.80;1.70;;;19.70;49.10;;;;;;4836830;29;20478;-60
2022/04/08 03:12:19;;;;;;;3.13;1.80;;;19.60;51.80;;;;;;4840618;29;20493;-60
2022/04/08 03:14:50;;;;;;;1.90;1.70;;;19.50;53.00;;;;;;4849536;29;20459;-60
2022/04/08 03:17:21;;;;;;;5.30;2.27;;;19.40;51.10;;;;;;4850974;29;20796;-60
2022/04/08 03:19:52;;;;;;;2.30;1.67;;;19.40;51.60;;;;;;4842863;29;20445;-60
2022/04/08 03:22:23;;;;;;;2.63;2.10;;;19.40;53.70;;;;;;4844251;29;20459;-59
2022/04/08 03:24:54;;;;;;;3.37;2.57;;;19.40;53.00;;;;;;4835432;29;20464;-59
2022/04/08 03:27:26;;;;;;;3.57;1.80;;;19.40;52.60;;;;;;4839841;29;20466;-60
2022/04/08 03:29:57;;;;;;;1.67;1.57;;;19.40;49.50;;;;;;4838890;29;20460;-60
2022/04/08 03:32:28;;;;;;;3.17;1.60;;;19.40;50.50;;;;;;4837977;29;20474;-60
2022/04/08 03:34:58;;;;;;;2.57;1.83;;;19.50;50.30;;;;;;4842234;29;20434;-60
2022/04/08 03:37:31;;;;;;;1.90;1.60;;;19.50;50.10;;;;;;4848615;29;20462;-59
2022/04/08 03:40:02;;;;;;;1.90;1.80;;;19.50;49.50;;;;;;4837186;29;20446;-59
2022/04/08 03:42:34;;;;;;;2.63;1.77;;;19.40;50.10;;;;;;4844831;29;20454;-60
2022/04/08 03:45:06;;;;;;;2.70;1.53;;;19.40;49.70;;;;;;4852124;29;20458;-60
2022/04/08 03:47:37;;;;;;;2.40;1.80;;;19.40;52.00;;;;;;4851923;29;20460;-61
2022/04/08 03:50:09;;;;;;;1.60;1.50;;;19.20;51.20;;;;;;4845352;29;20942;-61
2022/04/08 03:52:40;;;;;;;1.90;1.50;;;19.10;49.20;;;;;;4839606;29;20497;-63
2022/04/08 03:55:11;;;;;;;2.63;1.70;;;19.20;49.10;;;;;;4851363;29;20462;-61
2022/04/08 03:57:43;;;;;;;3.97;3.20;;;19.20;49.10;;;;;;4847590;29;20546;-61
2022/04/08 04:00:20;;;;;;;2.77;2.47;;;19.30;49.10;;;;;;4849623;29;20459;-60
2022/04/08 04:02:52;;;;;;;4.70;4.30;;;19.30;48.10;;;;;;4845399;29;20450;-60
2022/04/08 04:05:24;;;;;;;4.63;4.23;;;19.30;50.00;;;;;;4846836;29;20455;-60
2022/04/08 04:07:56;;;;;;;3.83;2.43;;;19.20;49.60;;;;;;4851256;29;20574;-60
2022/04/08 04:10:28;;;;;;;2.30;1.90;;;19.10;50.10;;;;;;4849879;29;20433;-60
2022/04/08 04:13:01;;;;;;;3.07;2.10;;;19.00;50.10;;;;;;4846217;29;20588;-60
2022/04/08 04:15:31;;;;;;;3.63;2.00;;;18.90;50.00;;;;;;4846156;29;20522;-60
2022/04/08 04:18:03;;;;;;;1.43;1.33;;;18.90;50.70;;;;;;4849445;29;20458;-61
2022/04/08 04:20:34;;;;;;;5.03;1.90;;;18.80;51.10;;;;;;4850019;29;20462;-61
2022/04/08 04:23:08;;;;;;;4.30;1.80;;;18.80;51.50;;;;;;4851031;29;20437;-60
2022/04/08 04:25:39;;;;;;;2.57;1.60;;;18.70;53.70;;;;;;4848191;29;20462;-60
2022/04/08 04:28:15;;;;;;;11.03;3.03;;;18.50;53.20;;;;;;4851276;29;20463;-62
2022/04/08 04:30:45;;;;;;;3.40;2.23;;;18.50;52.30;;;;;;4851570;29;20465;-63
2022/04/08 04:33:16;;;;;;;3.10;2.90;;;18.50;52.60;;;;;;4846851;29;20469;-62
2022/04/08 04:35:47;;;;;;;4.43;2.63;;;18.40;54.80;;;;;;4845672;29;20474;-62
2022/04/08 04:38:18;;;;;;;6.20;2.50;;;18.40;53.10;;;;;;4849014;29;20489;-62
2022/04/08 04:40:49;;;;;;;1.87;1.73;;;18.40;54.50;;;;;;4840174;29;20455;-60
2022/04/08 04:43:21;;;;;;;4.10;2.30;;;18.40;51.70;;;;;;4843328;29;20545;-59
2022/04/08 04:45:52;;;;;;;2.80;2.30;;;18.50;53.90;;;;;;4849170;29;20808;-62
2022/04/08 04:48:23;;;;;;;4.30;2.47;;;18.40;53.80;;;;;;4845779;29;20444;-58
2022/04/08 04:50:56;;;;;;;2.47;2.00;;;18.40;52.60;;;;;;4848453;29;20742;-59
2022/04/08 04:53:27;;;;;;;3.07;2.53;;;18.50;51.90;;;;;;4848492;29;20476;-59
2022/04/08 04:55:57;;;;;;;3.57;2.00;;;18.50;51.50;;;;;;4851846;29;20493;-59
2022/04/08 04:58:30;;;;;;;4.33;2.93;;;18.60;51.40;;;;;;4849285;29;20466;-59
2022/04/08 05:01:01;;;;;;;4.63;3.53;;;18.60;51.30;;;;;;4845390;29;20462;-58
2022/04/08 05:03:31;;;;;;;5.13;3.40;;;18.50;51.20;;;;;;4850718;29;20550;-59
2022/04/08 05:06:02;;;;;;;5.73;3.60;;;18.50;51.50;;;;;;4844905;29;20445;-59
2022/04/08 05:08:33;;;;;;;7.23;3.20;;;18.50;51.90;;;;;;4845422;29;20447;-59
2022/04/08 05:11:04;;;;;;;4.17;2.50;;;18.50;52.30;;;;;;4845188;29;20930;-59
2022/04/08 05:13:37;;;;;;;2.57;2.27;;;18.50;51.70;;;;;;4848202;29;20469;-59
2022/04/08 05:16:08;;;;;;;3.20;2.00;;;18.50;51.60;;;;;;4849432;29;20453;-59
2022/04/08 05:18:39;;;;;;;2.90;1.80;;;18.50;52.30;;;;;;4846896;29;20494;-59
2022/04/08 05:21:10;;;;;;;2.60;1.80;;;18.60;51.40;;;;;;4834436;29;20455;-58
2022/04/08 05:23:40;;;;;;;2.33;1.70;;;18.60;51.30;;;;;;4845126;29;21226;-58
2022/04/08 05:26:11;;;;;;;2.20;1.60;;;18.60;51.30;;;;;;4839065;29;20813;-59
2022/04/08 05:28:44;;;;;;;2.50;1.70;;;18.50;52.20;;;;;;4837575;29;20445;-59
2022/04/08 05:31:14;;;;;;;2.10;1.90;;;18.60;51.20;;;;;;4851856;29;20550;-59
2022/04/08 05:33:45;;;;;;;2.13;1.50;;;18.50;51.80;;;;;;4844071;29;20548;-59
2022/04/08 05:36:16;;;;;;;1.80;1.60;;;18.50;51.50;;;;;;4847895;29;20806;-59
2022/04/08 05:38:48;;;;;;;2.50;1.63;;;18.50;52.30;;;;;;4840416;29;20809;-58
2022/04/08 05:41:18;;;;;;;4.37;3.37;;;18.50;51.30;;;;;;4845497;29;20453;-58
2022/04/08 05:43:51;;;;;;;1.40;1.30;;;18.50;51.90;;;;;;4842523;29;20464;-58
2022/04/08 05:46:22;;;;;;;4.00;1.83;;;18.40;52.00;;;;;;4834957;29;20454;-59
2022/04/08 05:48:52;;;;;;;2.40;1.77;;;18.50;51.90;;;;;;4848470;29;20861;-60
2022/04/08 05:51:23;;;;;;;3.13;1.70;;;18.50;51.60;;;;;;4849424;29;20524;-59
2022/04/08 05:54:09;;;;;;;2.30;1.50;;;18.50;51.60;;;;;;4851333;29;20491;-58
2022/04/08 05:56:40;;;;;;;4.23;1.90;;;18.50;52.00;;;;;;4843560;29;20463;-59
2022/04/08 05:59:13;;;;;;;1.70;1.60;;;18.50;51.50;;;;;;4833395;29;20459;-59
2022/04/08 06:01:43;;;;;;;2.13;1.93;;;18.40;52.20;;;;;;4837113;29;20555;-58
2022/04/08 06:04:14;;;;;;;1.93;1.83;;;18.40;52.40;;;;;;4847249;29;20523;-59
2022/04/08 06:06:45;;;;;;;2.87;2.27;;;18.40;52.10;;;;;;4844326;29;20497;-59
2022/04/08 06:09:16;;;;;;;1.80;1.67;;;18.50;52.40;;;;;;4851132;29;20445;-58
2022/04/08 06:11:46;;;;;;;3.00;1.70;;;18.40;52.50;;;;;;4850904;29;20517;-59
2022/04/08 06:14:19;;;;;;;2.30;2.03;;;18.40;52.60;;;;;;4840213;29;20458;-58
2022/04/08 06:16:50;;;;;;;2.77;2.00;;;18.40;53.10;;;;;;4852026;29;20459;-59
2022/04/08 06:19:21;;;;;;;4.13;2.63;;;18.30;53.80;;;;;;4851148;29;20441;-59
2022/04/08 06:21:52;;;;;;;3.70;2.87;;;18.30;54.20;;;;;;4841120;29;20434;-59
2022/04/08 06:24:23;;;;;;;4.50;2.27;;;18.20;54.60;;;;;;4836097;29;20911;-59
2022/04/08 06:26:54;;;;;;;4.17;2.73;;;18.10;57.40;;;;;;4835991;29;20475;-59
2022/04/08 06:29:26;;;;;;;3.80;2.37;;;18.10;56.30;;;;;;4842929;29;20457;-60
2022/04/08 06:31:57;;;;;;;5.07;3.33;;;18.00;57.10;;;;;;4845676;29;20438;-58
2022/04/08 06:34:28;;;;;;;4.80;3.27;;;18.00;57.60;;;;;;4844367;29;20460;-59
2022/04/08 06:36:59;;;;;;;7.60;3.37;;;17.90;57.80;;;;;;4836508;29;20576;-59
2022/04/08 06:39:29;;;;;;;4.03;3.30;;;17.90;58.40;;;;;;4833550;29;20487;-59
2022/04/08 06:42:00;;;;;;;4.20;3.80;;;17.90;58.60;;;;;;4838662;29;20466;-59
2022/04/08 06:44:33;;;;;;;6.43;4.40;;;17.90;58.80;;;;;;4848591;29;20432;-59
2022/04/08 06:47:04;;;;;;;4.70;4.30;;;17.80;59.60;;;;;;4841372;29;20806;-59
2022/04/08 06:49:35;;;;;;;8.10;4.77;;;17.80;60.80;;;;;;4841385;29;20430;-58
2022/04/08 06:52:07;;;;;;;6.10;5.00;;;17.80;63.10;;;;;;4833151;29;20465;-59
2022/04/08 06:54:37;;;;;;;5.47;4.97;;;17.80;65.30;;;;;;4838625;29;20437;-59
2022/04/08 06:57:08;;;;;;;6.17;4.87;;;17.70;66.70;;;;;;4843199;29;20449;-59
2022/04/08 06:59:41;;;;;;;5.53;4.80;;;17.70;68.20;;;;;;4849034;29;20472;-58
2022/04/08 07:02:13;;;;;;;6.03;5.07;;;17.70;69.20;;;;;;4843151;29;20449;-59
2022/04/08 07:04:44;;;;;;;7.60;5.23;;;17.60;70.00;;;;;;4846599;29;20536;-59
2022/04/08 07:07:15;;;;;;;5.70;4.47;;;17.60;70.70;;;;;;4850316;29;20558;-59
2022/04/08 07:09:46;;;;;;;4.93;4.40;;;17.50;71.30;;;;;;4847112;29;20444;-58
2022/04/08 07:12:16;;;;;;;4.50;4.00;;;17.40;72.00;;;;;;4844285;29;20448;-59
2022/04/08 07:14:49;;;;;;;4.33;3.90;;;17.40;72.60;;;;;;4839708;29;20986;-59
2022/04/08 07:17:26;;;;;;;5.83;4.13;;;17.40;73.10;;;;;;4851846;29;20472;-58
2022/04/08 07:20:15;;;;;;;4.90;4.30;;;17.30;73.70;;;;;;4845860;29;20658;-59
2022/04/08 07:22:47;;;;;;;6.43;4.70;;;17.20;74.50;;;;;;4851491;29;20772;-59
2022/04/08 07:25:18;;;;;;;4.10;3.77;;;17.20;75.20;;;;;;4843884;29;20459;-59
2022/04/08 07:27:51;;;;;;;4.83;4.00;;;17.10;75.70;;;;;;4847351;29;20472;-59
2022/04/08 07:30:24;;;;;;;5.10;4.00;;;17.00;76.50;;;;;;4840107;29;20429;-59
2022/04/08 07:32:55;;;;;;;5.00;3.90;;;17.00;76.70;;;;;;4836787;29;20819;-59
2022/04/08 07:35:28;;;;;;;6.17;4.13;;;16.90;76.80;;;;;;4837168;29;20458;-59
2022/04/08 07:38:00;;;;;;;4.70;3.80;;;16.90;77.20;;;;;;4842144;29;20465;-58
2022/04/08 07:40:31;;;;;;;4.37;3.97;;;16.70;76.90;;;;;;4854192;29;20437;-59
2022/04/08 07:43:01;;;;;;;4.40;3.60;;;16.70;76.50;;;;;;4853148;29;20440;-59
2022/04/08 07:45:34;;;;;;;7.20;3.43;;;16.70;76.30;;;;;;4850464;29;20421;-58
2022/04/08 07:48:05;;;;;;;5.17;3.33;;;16.60;75.80;;;;;;4847181;29;20450;-58
2022/04/08 07:50:37;;;;;;;3.07;2.77;;;16.50;75.40;;;;;;4840495;29;20471;-59
2022/04/08 07:53:08;;;;;;;2.97;2.73;;;16.40;75.10;;;;;;4846168;29;20494;-59
2022/04/08 07:55:39;;;;;;;3.67;2.60;;;16.40;73.50;;;;;;4847259;29;20549;-59
2022/04/08 07:58:10;;;;;;;9.13;2.63;;;16.30;73.90;;;;;;4845845;29;20473;-59
2022/04/08 08:00:42;;;;;;;4.83;2.90;;;16.20;74.00;;;;;;4839938;29;20470;-58
2022/04/08 08:03:15;;;;;;;2.90;2.60;;;16.10;74.00;;;;;;4853095;29;20539;-59
2022/04/08 08:05:45;;;;;;;2.70;2.30;;;16.10;74.50;;;;;;4850750;29;20502;-59
2022/04/08 08:08:16;;;;;;;3.37;3.07;;;16.00;74.70;;;;;;4845624;29;20524;-59
2022/04/08 08:10:49;;;;;;;3.37;3.07;;;15.90;76.70;;;;;;4850615;29;20447;-59
2022/04/08 08:13:20;;;;;;;3.60;2.70;;;15.90;76.20;;;;;;4847769;29;20496;-58
2022/04/08 08:15:54;;;;;;;3.37;2.87;;;15.90;75.90;;;;;;4841813;29;20622;-58
2022/04/08 08:18:25;;;;;;;3.23;2.90;;;15.80;75.80;;;;;;4848335;29;20479;-58
2022/04/08 08:20:56;;;;;;;5.77;3.13;;;15.80;77.00;;;;;;4836898;29;20477;-58
2022/04/08 08:23:27;;;;;;;3.00;2.57;;;15.70;78.30;;;;;;4851368;29;20474;-58
2022/04/08 08:25:57;;;;;;;4.13;2.60;;;15.70;80.00;;;;;;4838323;29;20452;-58
2022/04/08 08:28:38;;;;;;;3.07;2.87;;;15.60;80.40;;;;;;4838327;29;20494;-58
2022/04/08 08:31:10;;;;;;;5.33;3.63;;;15.60;80.80;;;;;;4838104;29;20832;-58
2022/04/08 08:33:43;;;;;;;3.80;2.90;;;15.50;80.50;;;;;;4845543;29;20481;-58
2022/04/08 08:36:14;;;;;;;3.40;2.90;;;15.50;80.30;;;;;;4852409;29;20462;-58
2022/04/08 08:38:44;;;;;;;2.70;2.40;;;15.50;79.80;;;;;;4851663;29;20462;-59
2022/04/08 08:41:16;;;;;;;2.17;1.90;;;15.60;74.20;;;;;;4835451;29;20487;-59
2022/04/08 08:43:47;;;;;;;2.03;1.90;;;15.60;73.00;;;;;;4835913;29;20466;-58
2022/04/08 08:46:20;;;;;;;2.30;2.10;;;15.60;70.60;;;;;;4841516;29;20450;-59
2022/04/08 08:48:52;;;;;;;5.30;2.23;;;15.60;70.40;;;;;;4842788;29;20433;-59
2022/04/08 08:51:24;;;;;;;2.30;1.57;;;15.60;70.50;;;;;;4852871;29;20475;-59
2022/04/08 08:53:55;;;;;;;2.97;2.10;;;15.60;73.60;;;;;;4852804;29;20498;-58
2022/04/08 08:56:26;;;;;;;3.40;1.80;;;15.60;73.60;;;;;;4839609;29;20486;-58
2022/04/08 08:58:57;;;;;;;2.10;1.63;;;15.50;71.80;;;;;;4852183;29;20522;-58
2022/04/08 09:01:29;;;;;;;2.43;1.67;;;15.50;70.70;;;;;;4852807;29;20469;-58
2022/04/08 09:04:00;;;;;;;3.17;1.63;;;15.50;70.50;;;;;;4847931;29;20445;-58
2022/04/08 09:06:42;;;;;;;4.20;2.77;;;15.50;69.60;;;;;;4840393;29;20501;-58
2022/04/08 09:09:12;;;;;;;1.97;1.73;;;15.50;67.80;;;;;;4852623;29;20539;-58
2022/04/08 09:11:43;;;;;;;3.13;1.60;;;15.50;65.40;;;;;;4841652;29;20467;-58
2022/04/08 09:14:14;;;;;;;2.10;1.50;;;15.40;64.70;;;;;;4844041;29;20484;-59
2022/04/08 09:16:47;;;;;;;1.53;1.10;;;15.40;63.00;;;;;;4852284;29;20462;-59
2022/04/08 09:19:19;;;;;;;2.70;1.20;;;15.40;62.10;;;;;;4852582;29;20451;-58
2022/04/08 09:21:54;;;;;;;2.07;1.20;;;15.50;60.90;;;;;;4847856;29;20586;-58
2022/04/08 09:24:24;;;;;;;1.37;1.00;;;15.50;60.80;;;;;;4842911;29;20479;-59
2022/04/08 09:26:56;;;;;;;1.10;0.90;;;15.50;62.50;;;;;;4848212;29;20437;-58
2022/04/08 09:29:27;;;;;;;4.33;1.27;;;15.50;61.10;;;;;;4845167;29;20471;-59
2022/04/08 09:32:19;;;;;;;1.20;1.03;;;15.50;63.00;;;;;;4846955;29;20451;-59
2022/04/08 09:34:53;;;;;;;1.77;1.40;;;15.40;61.10;;;;;;4836623;29;20468;-58
2022/04/08 09:37:24;;;;;;;1.30;1.20;;;15.50;62.70;;;;;;4850657;29;20462;-58
2022/04/08 09:39:57;;;;;;;6.17;1.40;;;15.40;65.30;;;;;;4851235;29;20436;-59
2022/04/08 09:42:42;;;;;;;2.87;1.50;;;15.40;64.70;;;;;;4849389;29;20462;-58
2022/04/08 09:45:14;;;;;;;2.63;1.80;;;15.40;61.00;;;;;;4852062;29;20542;-58
2022/04/08 09:47:46;;;;;;;2.50;1.30;;;15.40;64.80;;;;;;4852257;29;20487;-58
2022/04/08 09:50:18;;;;;;;2.20;2.00;;;15.40;66.20;;;;;;4850589;29;20440;-58
2022/04/08 09:52:49;;;;;;;2.30;1.67;;;15.30;65.20;;;;;;4838055;29;20425;-58
2022/04/08 09:55:21;;;;;;;2.30;1.73;;;15.20;66.30;;;;;;4845671;29;20509;-58
2022/04/08 09:57:58;;;;;;;2.10;1.93;;;15.20;66.10;;;;;;4839359;29;20437;-58
2022/04/08 10:00:30;;;;;;;2.23;1.83;;;15.10;67.30;;;;;;4851964;29;20529;-58
2022/04/08 10:03:04;;;;;;;2.27;1.87;;;15.10;66.70;;;;;;4843263;29;20478;-58
2022/04/08 10:05:34;;;;;;;1.73;1.60;;;15.00;65.80;;;;;;4842505;29;20459;-59
2022/04/08 10:08:07;;;;;;;2.90;2.20;;;15.00;65.20;;;;;;4834191;29;20487;-59
2022/04/08 10:10:51;;;;;;;4.10;1.83;;;14.90;68.70;;;;;;4843386;29;20437;-59
2022/04/08 10:13:35;;;;;;;1.77;1.67;;;14.80;71.40;;;;;;4832876;29;20468;-58
2022/04/08 10:16:16;;;;;;;1.70;1.60;;;14.80;71.40;;;;;;4840691;29;20505;-59
2022/04/08 10:18:50;;;;;;;2.00;1.90;;;14.70;73.50;;;;;;4849362;29;20477;-59
2022/04/08 10:21:21;;;;;;;1.70;1.60;;;14.70;69.80;;;;;;4849008;29;20470;-58
2022/04/08 10:23:53;;;;;;;2.20;1.50;;;14.80;68.80;;;;;;4845641;29;20459;-58
2022/04/08 10:26:27;;;;;;;1.50;1.33;;;14.60;72.50;;;;;;4834065;29;20463;-58
2022/04/08 10:28:58;;;;;;;2.00;1.10;;;14.60;75.00;;;;;;4847714;29;20468;-58
2022/04/08 10:31:29;;;;;;;2.50;1.30;;;14.40;75.10;;;;;;4834926;29;20463;-58
2022/04/08 10:34:03;;;;;;;1.43;1.30;;;14.40;75.90;;;;;;4833253;29;20470;-58
2022/04/08 10:36:35;;;;;;;2.20;1.50;;;14.40;72.90;;;;;;4846859;29;20494;-58
2022/04/08 10:39:14;;;;;;;1.50;1.33;;;14.40;75.90;;;;;;4848728;29;20515;-59
2022/04/08 10:41:49;;;;;;;1.60;0.97;;;14.30;74.80;;;;;;4837169;29;20455;-58
2022/04/08 10:44:32;;;;;;;2.43;0.90;;;14.20;75.20;;;;;;4847771;29;20903;-58
2022/04/08 10:47:05;;;;;;;2.27;1.00;;;14.20;78.40;;;;;;4850952;29;20969;-58
2022/04/08 10:49:50;;;;;;;1.30;1.00;;;14.00;80.20;;;;;;4835218;29;20463;-58
2022/04/08 10:52:23;;;;;;;1.13;1.03;;;13.80;83.80;;;;;;4843348;29;20473;-58
2022/04/08 10:55:05;;;;;;;1.57;1.00;;;13.70;90.20;;;;;;4833334;29;20495;-58
2022/04/08 10:57:36;;;;;;;1.43;1.17;;;13.60;91.80;;;;;;4847869;29;20465;-58
2022/04/08 11:00:10;;;;;;;2.40;1.90;;;13.60;95.10;;;;;;4848358;29;20452;-59
2022/04/08 11:02:42;;;;;;;4.70;1.67;;;13.50;99.90;;;;;;4843606;29;20840;-59
2022/04/08 11:05:16;;;;;;;1.90;1.17;;;13.30;99.90;;;;;;4847624;29;20807;-59
2022/04/08 11:07:47;;;;;;;2.03;1.30;;;13.20;99.90;;;;;;4837324;29;20502;-59
2022/04/08 11:10:19;;;;;;;2.47;2.17;;;13.00;99.90;;;;;;4835257;29;20991;-59
2022/04/08 11:12:52;;;;;;;3.07;1.30;;;13.00;99.90;;;;;;4836787;29;20458;-60
2022/04/08 11:15:25;;;;;;;3.27;1.80;;;12.80;99.90;;;;;;4833480;29;20499;-58
2022/04/08 11:17:55;;;;;;;2.07;1.40;;;12.50;99.90;;;;;;4837072;29;20598;-59
2022/04/08 11:20:28;;;;;;;1.50;1.37;;;12.40;99.90;;;;;;4836189;29;20967;-59
2022/04/08 11:22:59;;;;;;;2.57;1.40;;;12.30;99.90;;;;;;4850147;29;20466;-59
2022/04/08 11:25:32;;;;;;;2.83;1.53;;;12.30;99.90;;;;;;4843586;29;20485;-59
2022/04/08 11:28:04;;;;;;;2.13;1.60;;;12.10;99.90;;;;;;4848843;29;20447;-59
2022/04/08 11:30:38;;;;;;;4.23;1.37;;;12.10;99.90;;;;;;4849318;29;20458;-59
2022/04/08 11:33:15;;;;;;;3.33;1.30;;;12.00;99.90;;;;;;4841322;29;20466;-59
2022/04/08 11:35:49;;;;;;;4.30;1.83;;;12.10;99.90;;;;;;4850332;29;20493;-59
2022/04/08 11:38:26;;;;;;;3.70;2.13;;;11.90;99.90;;;;;;4849882;29;20462;-57
2022/04/08 11:40:57;;;;;;;2.43;1.60;;;11.70;99.90;;;;;;4844988;29;20467;-59
2022/04/08 11:43:28;;;;;;;2.30;1.50;;;11.70;99.90;;;;;;4849910;29;20474;-59
2022/04/08 11:45:59;;;;;;;2.10;1.90;;;11.80;99.90;;;;;;4850667;29;20458;-58
2022/04/08 11:48:29;;;;;;;1.80;1.70;;;11.80;99.90;;;;;;4836338;29;20459;-58
2022/04/08 11:51:07;;;;;;;4.33;2.17;;;11.70;99.90;;;;;;4835313;29;20466;-58
2022/04/08 11:53:45;;;;;;;2.10;1.90;;;11.60;99.90;;;;;;4838612;29;20477;-59
2022/04/08 11:56:22;;;;;;;4.80;2.30;;;11.50;99.90;;;;;;4844125;29;20497;-59
2022/04/08 11:59:01;;;;;;;3.47;2.00;;;11.50;99.90;;;;;;4838888;29;20462;-59
2022/04/08 12:01:33;;;;;;;2.87;2.00;;;11.40;99.90;;;;;;4851330;29;20473;-58
2022/04/08 12:04:05;;;;;;;3.00;2.30;;;11.30;99.90;;;;;;4851603;29;20454;-59
2022/04/08 12:06:41;;;;;;;5.77;2.50;;;11.30;99.90;;;;;;4840472;29;20815;-58
2022/04/08 12:09:13;;;;;;;3.63;2.47;;;11.20;99.90;;;;;;4840801;29;20488;-58
2022/04/08 12:11:45;;;;;;;5.10;2.97;;;11.20;99.90;;;;;;4844095;29;20467;-58
2022/04/08 12:14:20;;;;;;;4.63;2.10;;;11.10;99.90;;;;;;4840738;29;20842;-58
2022/04/08 12:16:51;;;;;;;3.83;2.30;;;11.10;99.90;;;;;;4847369;29;20600;-59
2022/04/08 12:19:24;;;;;;;2.33;2.13;;;11.10;99.90;;;;;;4841591;29;20451;-58
2022/04/08 12:22:11;;;;;;;3.07;2.10;;;11.00;99.90;;;;;;4841950;29;20459;-59
2022/04/08 12:24:43;;;;;;;3.20;2.00;;;11.00;99.90;;;;;;4844276;29;20579;-59
2022/04/08 12:27:19;;;;;;;5.27;2.00;;;11.00;99.90;;;;;;4840305;29;20565;-59
2022/04/08 12:30:00;;;;;;;5.43;2.33;;;10.90;99.90;;;;;;4851513;29;20462;-58
2022/04/08 12:32:38;;;;;;;1.80;1.70;;;10.90;99.90;;;;;;4853563;29;20541;-59
2022/04/08 12:35:11;;;;;;;3.37;2.07;;;10.90;99.90;;;;;;4837235;29;20462;-58
2022/04/08 12:37:43;;;;;;;6.73;2.83;;;10.90;99.90;;;;;;4842453;29;20962;-58
2022/04/08 12:40:14;;;;;;;2.77;2.50;;;10.90;99.90;;;;;;4836565;29;20914;-58
2022/04/08 12:42:45;;;;;;;7.13;2.60;;;10.80;99.90;;;;;;4849638;29;20487;-58
2022/04/08 12:45:16;;;;;;;5.13;2.57;;;10.90;99.90;;;;;;4853224;29;20474;-56
2022/04/08 12:47:46;;;;;;;2.73;1.97;;;10.80;99.90;;;;;;4845682;29;20478;-58
2022/04/08 12:50:17;;;;;;;3.90;2.40;;;10.80;99.90;;;;;;4835977;29;20460;-58
2022/04/08 12:52:50;;;;;;;3.13;1.87;;;10.70;99.90;;;;;;4845533;29;20454;-58
2022/04/08 12:55:20;;;;;;;3.57;2.77;;;10.80;99.90;;;;;;4853388;29;20474;-57
2022/04/08 12:57:51;;;;;;;3.87;2.97;;;10.80;99.90;;;;;;4838806;29;20501;-58
2022/04/08 13:00:25;;;;;;;3.77;2.43;;;10.70;99.90;;;;;;4838370;29;20488;-56
2022/04/08 13:02:56;;;;;;;3.03;2.27;;;10.70;99.90;;;;;;4839572;29;20530;-56
2022/04/08 13:05:27;;;;;;;3.23;2.83;;;10.80;99.90;;;;;;4843508;29;20465;-58
2022/04/08 13:08:00;;;;;;;3.00;2.63;;;10.80;99.90;;;;;;4845678;29;20495;-57
2022/04/08 13:10:30;;;;;;;4.77;3.07;;;10.90;99.90;;;;;;4850140;29;20473;-59
2022/04/08 13:13:08;;;;;;;2.73;2.20;;;10.90;99.90;;;;;;4851707;29;20531;-58